sensor_id;sensor_type;location;lat;lon;timestamp;P1;durP1;ratioP1;P2;durP2;ratioP2
9541;SDS011;4809;48.224;8.572;2023-07-30T00:02:15;3.70;;;3.20;;
9541;SDS011;4809;48.224;8.572;2023-07-30T00:04:41;3.65;;;3.10;;
9541;SDS011;4809;48.224;8.572;2023-07-30T00:07:07;4.45;;;3.10;;
9541;SDS011;4809;48.224;8.572;2023-07-30T00:09:32;5.00;;;3.20;;
9541;SDS011;4809;48.224;8.572;2023-07-30T00:11:58;6.35;;;3.20;;
9541;SDS011;4809;48.224;8.572;2023-07-30T00:14:23;3.25;;;2.90;;
9541;SDS011;4809;48.224;8.572;2023-07-30T00:16:49;3.78;;;2.95;;
9541;SDS011;4809;48.224;8.572;2023-07-30T00:19:15;4.30;;;3.28;;
9541;SDS011;4809;48.224;8.572;2023-07-30T00:21:40;3.38;;;3.08;;
9541;SDS011;4809;48.224;8.572;2023-07-30T00:24:08;9.77;;;3.20;;
9541;SDS011;4809;48.224;8.572;2023-07-30T00:26:34;3.50;;;3.10;;
9541;SDS011;4809;48.224;8.572;2023-07-30T00:28:59;3.33;;;2.85;;
9541;SDS011;4809;48.224;8.572;2023-07-30T00:31:25;3.10;;;2.80;;
9541;SDS011;4809;48.224;8.572;2023-07-30T00:33:51;3.10;;;2.80;;
9541;SDS011;4809;48.224;8.572;2023-07-30T00:36:16;3.70;;;2.60;;
9541;SDS011;4809;48.224;8.572;2023-07-30T00:38:42;4.25;;;2.88;;
9541;SDS011;4809;48.224;8.572;2023-07-30T00:41:07;4.00;;;2.97;;
9541;SDS011;4809;48.224;8.572;2023-07-30T00:43:33;4.47;;;3.00;;
9541;SDS011;4809;48.224;8.572;2023-07-30T00:45:59;3.75;;;2.80;;
9541;SDS011;4809;48.224;8.572;2023-07-30T00:48:24;3.13;;;2.70;;
9541;SDS011;4809;48.224;8.572;2023-07-30T00:50:50;3.55;;;2.63;;
9541;SDS011;4809;48.224;8.572;2023-07-30T00:53:16;3.72;;;2.80;;
9541;SDS011;4809;48.224;8.572;2023-07-30T00:55:43;4.55;;;3.25;;
9541;SDS011;4809;48.224;8.572;2023-07-30T00:58:09;3.10;;;2.80;;
9541;SDS011;4809;48.224;8.572;2023-07-30T01:00:35;3.67;;;2.85;;
9541;SDS011;4809;48.224;8.572;2023-07-30T01:03:01;3.00;;;2.70;;
9541;SDS011;4809;48.224;8.572;2023-07-30T01:05:28;2.72;;;2.53;;
9541;SDS011;4809;48.224;8.572;2023-07-30T01:07:54;3.80;;;2.75;;
9541;SDS011;4809;48.224;8.572;2023-07-30T01:10:19;3.38;;;3.00;;
9541;SDS011;4809;48.224;8.572;2023-07-30T01:12:46;4.40;;;3.03;;
9541;SDS011;4809;48.224;8.572;2023-07-30T01:15:12;4.10;;;3.03;;
9541;SDS011;4809;48.224;8.572;2023-07-30T01:17:39;3.10;;;2.80;;
9541;SDS011;4809;48.224;8.572;2023-07-30T01:20:04;3.30;;;2.92;;
9541;SDS011;4809;48.224;8.572;2023-07-30T01:22:30;3.20;;;2.90;;
9541;SDS011;4809;48.224;8.572;2023-07-30T01:24:56;5.45;;;2.50;;
9541;SDS011;4809;48.224;8.572;2023-07-30T01:27:23;3.58;;;2.85;;
9541;SDS011;4809;48.224;8.572;2023-07-30T01:30:05;2.83;;;2.55;;
9541;SDS011;4809;48.224;8.572;2023-07-30T01:32:37;2.92;;;2.63;;
9541;SDS011;4809;48.224;8.572;2023-07-30T01:35:05;3.03;;;2.60;;
9541;SDS011;4809;48.224;8.572;2023-07-30T01:37:33;2.60;;;2.40;;
9541;SDS011;4809;48.224;8.572;2023-07-30T01:39:59;3.38;;;2.63;;
9541;SDS011;4809;48.224;8.572;2023-07-30T01:42:29;3.00;;;2.70;;
9541;SDS011;4809;48.224;8.572;2023-07-30T01:44:58;2.78;;;2.58;;
9541;SDS011;4809;48.224;8.572;2023-07-30T01:47:24;3.10;;;2.80;;
9541;SDS011;4809;48.224;8.572;2023-07-30T01:49:49;2.90;;;2.42;;
9541;SDS011;4809;48.224;8.572;2023-07-30T01:52:15;3.20;;;2.42;;
9541;SDS011;4809;48.224;8.572;2023-07-30T01:54:40;2.97;;;2.45;;
9541;SDS011;4809;48.224;8.572;2023-07-30T01:57:07;3.13;;;2.30;;
9541;SDS011;4809;48.224;8.572;2023-07-30T01:59:33;2.60;;;2.40;;
9541;SDS011;4809;48.224;8.572;2023-07-30T02:01:59;2.70;;;2.50;;
9541;SDS011;4809;48.224;8.572;2023-07-30T02:04:24;2.53;;;2.33;;
9541;SDS011;4809;48.224;8.572;2023-07-30T02:06:50;2.70;;;2.50;;
9541;SDS011;4809;48.224;8.572;2023-07-30T02:09:16;2.60;;;2.40;;
9541;SDS011;4809;48.224;8.572;2023-07-30T02:11:41;2.50;;;2.30;;
9541;SDS011;4809;48.224;8.572;2023-07-30T02:14:07;2.53;;;2.33;;
9541;SDS011;4809;48.224;8.572;2023-07-30T02:16:33;2.60;;;2.38;;
9541;SDS011;4809;48.224;8.572;2023-07-30T02:18:59;5.03;;;2.80;;
9541;SDS011;4809;48.224;8.572;2023-07-30T02:21:25;2.63;;;2.40;;
9541;SDS011;4809;48.224;8.572;2023-07-30T02:23:50;2.50;;;2.30;;
9541;SDS011;4809;48.224;8.572;2023-07-30T02:26:16;2.78;;;2.55;;
9541;SDS011;4809;48.224;8.572;2023-07-30T02:28:41;2.70;;;2.42;;
9541;SDS011;4809;48.224;8.572;2023-07-30T02:31:08;2.92;;;2.40;;
9541;SDS011;4809;48.224;8.572;2023-07-30T02:33:33;3.22;;;2.30;;
9541;SDS011;4809;48.224;8.572;2023-07-30T02:35:59;2.50;;;2.30;;
9541;SDS011;4809;48.224;8.572;2023-07-30T02:38:25;2.78;;;2.47;;
9541;SDS011;4809;48.224;8.572;2023-07-30T02:40:50;2.60;;;2.10;;
9541;SDS011;4809;48.224;8.572;2023-07-30T02:43:16;2.95;;;2.40;;
9541;SDS011;4809;48.224;8.572;2023-07-30T02:45:41;3.33;;;2.30;;
9541;SDS011;4809;48.224;8.572;2023-07-30T02:48:07;3.53;;;2.30;;
9541;SDS011;4809;48.224;8.572;2023-07-30T02:50:33;2.72;;;2.40;;
9541;SDS011;4809;48.224;8.572;2023-07-30T02:52:58;2.47;;;2.15;;
9541;SDS011;4809;48.224;8.572;2023-07-30T02:55:24;4.18;;;2.38;;
9541;SDS011;4809;48.224;8.572;2023-07-30T02:57:50;2.80;;;2.30;;
9541;SDS011;4809;48.224;8.572;2023-07-30T03:00:16;2.92;;;2.33;;
9541;SDS011;4809;48.224;8.572;2023-07-30T03:02:42;3.08;;;2.78;;
9541;SDS011;4809;48.224;8.572;2023-07-30T03:05:07;2.95;;;2.30;;
9541;SDS011;4809;48.224;8.572;2023-07-30T03:07:33;3.13;;;2.20;;
9541;SDS011;4809;48.224;8.572;2023-07-30T03:10:00;2.30;;;1.95;;
9541;SDS011;4809;48.224;8.572;2023-07-30T03:12:25;2.83;;;2.35;;
9541;SDS011;4809;48.224;8.572;2023-07-30T03:14:51;2.95;;;2.40;;
9541;SDS011;4809;48.224;8.572;2023-07-30T03:17:16;3.70;;;2.28;;
9541;SDS011;4809;48.224;8.572;2023-07-30T03:19:42;2.63;;;2.20;;
9541;SDS011;4809;48.224;8.572;2023-07-30T03:22:08;3.08;;;2.30;;
9541;SDS011;4809;48.224;8.572;2023-07-30T03:24:34;3.42;;;2.40;;
9541;SDS011;4809;48.224;8.572;2023-07-30T03:26:59;3.25;;;2.25;;
9541;SDS011;4809;48.224;8.572;2023-07-30T03:29:25;2.78;;;2.20;;
9541;SDS011;4809;48.224;8.572;2023-07-30T03:31:50;3.55;;;2.20;;
9541;SDS011;4809;48.224;8.572;2023-07-30T03:34:16;4.32;;;2.38;;
9541;SDS011;4809;48.224;8.572;2023-07-30T03:36:42;3.40;;;2.45;;
9541;SDS011;4809;48.224;8.572;2023-07-30T03:39:07;4.97;;;2.60;;
9541;SDS011;4809;48.224;8.572;2023-07-30T03:41:33;3.30;;;2.35;;
9541;SDS011;4809;48.224;8.572;2023-07-30T03:44:00;5.30;;;2.33;;
9541;SDS011;4809;48.224;8.572;2023-07-30T03:46:26;2.92;;;2.20;;
9541;SDS011;4809;48.224;8.572;2023-07-30T03:48:51;6.45;;;2.70;;
9541;SDS011;4809;48.224;8.572;2023-07-30T03:51:17;6.13;;;2.63;;
9541;SDS011;4809;48.224;8.572;2023-07-30T03:53:42;3.85;;;2.40;;
9541;SDS011;4809;48.224;8.572;2023-07-30T03:56:08;3.53;;;2.42;;
9541;SDS011;4809;48.224;8.572;2023-07-30T03:58:34;5.68;;;2.40;;
9541;SDS011;4809;48.224;8.572;2023-07-30T04:01:00;4.18;;;2.30;;
9541;SDS011;4809;48.224;8.572;2023-07-30T04:03:26;2.28;;;2.00;;
9541;SDS011;4809;48.224;8.572;2023-07-30T04:05:52;3.90;;;2.40;;
9541;SDS011;4809;48.224;8.572;2023-07-30T04:08:18;7.90;;;2.42;;
9541;SDS011;4809;48.224;8.572;2023-07-30T04:10:43;5.80;;;2.60;;
9541;SDS011;4809;48.224;8.572;2023-07-30T04:13:09;3.92;;;2.35;;
9541;SDS011;4809;48.224;8.572;2023-07-30T04:15:34;5.10;;;2.47;;
9541;SDS011;4809;48.224;8.572;2023-07-30T04:18:00;5.72;;;2.42;;
9541;SDS011;4809;48.224;8.572;2023-07-30T04:20:26;4.72;;;2.50;;
9541;SDS011;4809;48.224;8.572;2023-07-30T04:22:51;2.67;;;2.20;;
9541;SDS011;4809;48.224;8.572;2023-07-30T04:25:19;4.80;;;2.50;;
9541;SDS011;4809;48.224;8.572;2023-07-30T04:27:45;3.03;;;2.33;;
9541;SDS011;4809;48.224;8.572;2023-07-30T04:30:11;3.40;;;2.40;;
9541;SDS011;4809;48.224;8.572;2023-07-30T04:32:37;3.33;;;2.45;;
9541;SDS011;4809;48.224;8.572;2023-07-30T04:35:02;5.40;;;2.60;;
9541;SDS011;4809;48.224;8.572;2023-07-30T04:37:28;3.20;;;2.60;;
9541;SDS011;4809;48.224;8.572;2023-07-30T04:39:54;4.75;;;2.45;;
9541;SDS011;4809;48.224;8.572;2023-07-30T04:42:20;5.40;;;2.50;;
9541;SDS011;4809;48.224;8.572;2023-07-30T04:44:45;3.15;;;2.40;;
9541;SDS011;4809;48.224;8.572;2023-07-30T04:47:11;2.92;;;2.22;;
9541;SDS011;4809;48.224;8.572;2023-07-30T04:49:36;4.85;;;2.60;;
9541;SDS011;4809;48.224;8.572;2023-07-30T04:52:05;2.70;;;2.50;;
9541;SDS011;4809;48.224;8.572;2023-07-30T04:54:32;4.53;;;2.40;;
9541;SDS011;4809;48.224;8.572;2023-07-30T04:56:57;3.42;;;2.40;;
9541;SDS011;4809;48.224;8.572;2023-07-30T04:59:23;4.60;;;2.50;;
9541;SDS011;4809;48.224;8.572;2023-07-30T05:01:48;3.40;;;2.65;;
9541;SDS011;4809;48.224;8.572;2023-07-30T05:04:14;3.97;;;2.40;;
9541;SDS011;4809;48.224;8.572;2023-07-30T05:06:40;3.47;;;2.40;;
9541;SDS011;4809;48.224;8.572;2023-07-30T05:09:05;4.22;;;2.65;;
9541;SDS011;4809;48.224;8.572;2023-07-30T05:11:31;4.38;;;2.53;;
9541;SDS011;4809;48.224;8.572;2023-07-30T05:13:56;2.60;;;2.30;;
9541;SDS011;4809;48.224;8.572;2023-07-30T05:16:22;3.03;;;2.25;;
9541;SDS011;4809;48.224;8.572;2023-07-30T05:18:48;2.95;;;2.20;;
9541;SDS011;4809;48.224;8.572;2023-07-30T05:21:13;3.38;;;2.60;;
9541;SDS011;4809;48.224;8.572;2023-07-30T05:23:39;3.67;;;2.40;;
9541;SDS011;4809;48.224;8.572;2023-07-30T05:26:04;3.03;;;2.33;;
9541;SDS011;4809;48.224;8.572;2023-07-30T05:28:30;5.72;;;2.40;;
9541;SDS011;4809;48.224;8.572;2023-07-30T05:30:56;5.05;;;2.53;;
9541;SDS011;4809;48.224;8.572;2023-07-30T05:33:21;3.40;;;2.40;;
9541;SDS011;4809;48.224;8.572;2023-07-30T05:35:47;3.58;;;2.50;;
9541;SDS011;4809;48.224;8.572;2023-07-30T05:38:13;2.97;;;2.10;;
9541;SDS011;4809;48.224;8.572;2023-07-30T05:40:38;2.85;;;2.20;;
9541;SDS011;4809;48.224;8.572;2023-07-30T05:43:04;2.17;;;2.08;;
9541;SDS011;4809;48.224;8.572;2023-07-30T05:45:29;2.92;;;1.98;;
9541;SDS011;4809;48.224;8.572;2023-07-30T05:47:55;3.47;;;2.00;;
9541;SDS011;4809;48.224;8.572;2023-07-30T05:50:21;2.15;;;1.95;;
9541;SDS011;4809;48.224;8.572;2023-07-30T05:52:46;3.50;;;2.08;;
9541;SDS011;4809;48.224;8.572;2023-07-30T05:55:12;2.90;;;2.05;;
9541;SDS011;4809;48.224;8.572;2023-07-30T05:57:37;2.55;;;1.90;;
9541;SDS011;4809;48.224;8.572;2023-07-30T06:00:03;2.10;;;2.00;;
9541;SDS011;4809;48.224;8.572;2023-07-30T06:02:29;1.90;;;1.80;;
9541;SDS011;4809;48.224;8.572;2023-07-30T06:04:55;2.38;;;1.90;;
9541;SDS011;4809;48.224;8.572;2023-07-30T06:07:21;2.78;;;2.10;;
9541;SDS011;4809;48.224;8.572;2023-07-30T06:09:46;2.95;;;2.00;;
9541;SDS011;4809;48.224;8.572;2023-07-30T06:12:12;2.10;;;1.90;;
9541;SDS011;4809;48.224;8.572;2023-07-30T06:14:38;2.22;;;2.03;;
9541;SDS011;4809;48.224;8.572;2023-07-30T06:17:03;3.35;;;2.22;;
9541;SDS011;4809;48.224;8.572;2023-07-30T06:19:29;2.10;;;2.00;;
9541;SDS011;4809;48.224;8.572;2023-07-30T06:21:54;1.92;;;1.83;;
9541;SDS011;4809;48.224;8.572;2023-07-30T06:24:20;2.08;;;1.88;;
9541;SDS011;4809;48.224;8.572;2023-07-30T06:26:46;2.10;;;2.00;;
9541;SDS011;4809;48.224;8.572;2023-07-30T06:29:11;2.38;;;2.10;;
9541;SDS011;4809;48.224;8.572;2023-07-30T06:31:37;1.83;;;1.73;;
9541;SDS011;4809;48.224;8.572;2023-07-30T06:34:03;2.00;;;1.90;;
9541;SDS011;4809;48.224;8.572;2023-07-30T06:36:29;1.95;;;1.85;;
9541;SDS011;4809;48.224;8.572;2023-07-30T06:38:54;3.10;;;1.98;;
9541;SDS011;4809;48.224;8.572;2023-07-30T06:41:20;2.00;;;1.90;;
9541;SDS011;4809;48.224;8.572;2023-07-30T06:43:46;3.25;;;1.90;;
9541;SDS011;4809;48.224;8.572;2023-07-30T06:46:12;1.92;;;1.77;;
9541;SDS011;4809;48.224;8.572;2023-07-30T06:48:38;2.38;;;2.10;;
9541;SDS011;4809;48.224;8.572;2023-07-30T06:51:06;2.47;;;2.10;;
9541;SDS011;4809;48.224;8.572;2023-07-30T06:53:32;2.13;;;1.92;;
9541;SDS011;4809;48.224;8.572;2023-07-30T06:55:58;1.90;;;1.80;;
9541;SDS011;4809;48.224;8.572;2023-07-30T06:58:24;2.13;;;1.95;;
9541;SDS011;4809;48.224;8.572;2023-07-30T07:00:50;2.58;;;1.90;;
9541;SDS011;4809;48.224;8.572;2023-07-30T07:03:15;3.20;;;1.85;;
9541;SDS011;4809;48.224;8.572;2023-07-30T07:05:42;2.50;;;1.70;;
9541;SDS011;4809;48.224;8.572;2023-07-30T07:08:08;2.60;;;2.03;;
9541;SDS011;4809;48.224;8.572;2023-07-30T07:10:34;2.67;;;2.47;;
9541;SDS011;4809;48.224;8.572;2023-07-30T07:12:59;1.98;;;1.88;;
9541;SDS011;4809;48.224;8.572;2023-07-30T07:15:25;2.42;;;2.05;;
9541;SDS011;4809;48.224;8.572;2023-07-30T07:17:51;2.03;;;1.92;;
9541;SDS011;4809;48.224;8.572;2023-07-30T07:20:16;2.70;;;2.00;;
9541;SDS011;4809;48.224;8.572;2023-07-30T07:22:43;2.00;;;1.85;;
9541;SDS011;4809;48.224;8.572;2023-07-30T07:25:08;2.80;;;1.95;;
9541;SDS011;4809;48.224;8.572;2023-07-30T07:27:35;2.33;;;2.10;;
9541;SDS011;4809;48.224;8.572;2023-07-30T07:30:00;1.90;;;1.80;;
9541;SDS011;4809;48.224;8.572;2023-07-30T07:32:26;2.65;;;2.00;;
9541;SDS011;4809;48.224;8.572;2023-07-30T07:34:52;3.03;;;2.05;;
9541;SDS011;4809;48.224;8.572;2023-07-30T07:37:18;4.03;;;2.03;;
9541;SDS011;4809;48.224;8.572;2023-07-30T07:39:44;2.20;;;2.00;;
9541;SDS011;4809;48.224;8.572;2023-07-30T07:42:10;2.45;;;2.10;;
9541;SDS011;4809;48.224;8.572;2023-07-30T07:44:37;2.30;;;1.95;;
9541;SDS011;4809;48.224;8.572;2023-07-30T07:47:03;2.22;;;2.03;;
9541;SDS011;4809;48.224;8.572;2023-07-30T07:49:29;3.30;;;2.10;;
9541;SDS011;4809;48.224;8.572;2023-07-30T07:51:55;2.25;;;2.05;;
9541;SDS011;4809;48.224;8.572;2023-07-30T07:54:20;3.40;;;3.20;;
9541;SDS011;4809;48.224;8.572;2023-07-30T07:56:46;2.22;;;2.03;;
9541;SDS011;4809;48.224;8.572;2023-07-30T07:59:12;2.10;;;2.00;;
9541;SDS011;4809;48.224;8.572;2023-07-30T08:01:38;2.10;;;1.90;;
9541;SDS011;4809;48.224;8.572;2023-07-30T08:04:03;2.33;;;2.00;;
9541;SDS011;4809;48.224;8.572;2023-07-30T08:06:30;2.47;;;1.83;;
9541;SDS011;4809;48.224;8.572;2023-07-30T08:08:57;2.05;;;1.83;;
9541;SDS011;4809;48.224;8.572;2023-07-30T08:11:22;1.90;;;1.80;;
9541;SDS011;4809;48.224;8.572;2023-07-30T08:13:48;2.15;;;1.90;;
9541;SDS011;4809;48.224;8.572;2023-07-30T08:16:13;2.45;;;1.90;;
9541;SDS011;4809;48.224;8.572;2023-07-30T08:18:39;2.35;;;2.00;;
9541;SDS011;4809;48.224;8.572;2023-07-30T08:21:05;2.10;;;1.90;;
9541;SDS011;4809;48.224;8.572;2023-07-30T08:23:30;2.00;;;1.90;;
9541;SDS011;4809;48.224;8.572;2023-07-30T08:25:56;2.20;;;2.00;;
9541;SDS011;4809;48.224;8.572;2023-07-30T08:28:21;2.50;;;1.75;;
9541;SDS011;4809;48.224;8.572;2023-07-30T08:30:47;1.83;;;1.73;;
9541;SDS011;4809;48.224;8.572;2023-07-30T08:33:13;2.08;;;1.88;;
9541;SDS011;4809;48.224;8.572;2023-07-30T08:35:39;2.28;;;2.08;;
9541;SDS011;4809;48.224;8.572;2023-07-30T08:38:04;1.90;;;1.80;;
9541;SDS011;4809;48.224;8.572;2023-07-30T08:40:30;2.25;;;1.90;;
9541;SDS011;4809;48.224;8.572;2023-07-30T08:42:57;2.00;;;1.90;;
9541;SDS011;4809;48.224;8.572;2023-07-30T08:45:23;2.65;;;1.95;;
9541;SDS011;4809;48.224;8.572;2023-07-30T08:47:48;2.88;;;2.03;;
9541;SDS011;4809;48.224;8.572;2023-07-30T08:50:14;2.10;;;1.90;;
9541;SDS011;4809;48.224;8.572;2023-07-30T08:52:40;1.90;;;1.80;;
9541;SDS011;4809;48.224;8.572;2023-07-30T08:55:07;2.17;;;1.80;;
9541;SDS011;4809;48.224;8.572;2023-07-30T08:57:33;1.70;;;1.60;;
9541;SDS011;4809;48.224;8.572;2023-07-30T09:00:05;2.45;;;1.92;;
9541;SDS011;4809;48.224;8.572;2023-07-30T09:02:43;2.38;;;1.80;;
9541;SDS011;4809;48.224;8.572;2023-07-30T09:05:12;1.90;;;1.80;;
9541;SDS011;4809;48.224;8.572;2023-07-30T09:07:38;2.00;;;1.90;;
9541;SDS011;4809;48.224;8.572;2023-07-30T09:10:04;2.00;;;1.80;;
9541;SDS011;4809;48.224;8.572;2023-07-30T09:12:31;1.70;;;1.60;;
9541;SDS011;4809;48.224;8.572;2023-07-30T09:14:58;1.85;;;1.75;;
9541;SDS011;4809;48.224;8.572;2023-07-30T09:17:24;1.88;;;1.77;;
9541;SDS011;4809;48.224;8.572;2023-07-30T09:19:51;2.50;;;1.80;;
9541;SDS011;4809;48.224;8.572;2023-07-30T09:22:27;2.00;;;1.90;;
9541;SDS011;4809;48.224;8.572;2023-07-30T09:24:54;2.30;;;2.10;;
9541;SDS011;4809;48.224;8.572;2023-07-30T09:27:24;1.90;;;1.80;;
9541;SDS011;4809;48.224;8.572;2023-07-30T09:29:57;1.58;;;1.48;;
9541;SDS011;4809;48.224;8.572;2023-07-30T09:32:25;2.50;;;1.60;;
9541;SDS011;4809;48.224;8.572;2023-07-30T09:34:54;1.60;;;1.50;;
9541;SDS011;4809;48.224;8.572;2023-07-30T09:37:20;3.17;;;1.67;;
9541;SDS011;4809;48.224;8.572;2023-07-30T09:39:49;1.98;;;1.70;;
9541;SDS011;4809;48.224;8.572;2023-07-30T09:42:15;3.10;;;2.10;;
9541;SDS011;4809;48.224;8.572;2023-07-30T09:44:40;2.22;;;2.03;;
9541;SDS011;4809;48.224;8.572;2023-07-30T09:47:09;2.40;;;2.10;;
9541;SDS011;4809;48.224;8.572;2023-07-30T09:49:38;2.17;;;1.98;;
9541;SDS011;4809;48.224;8.572;2023-07-30T09:52:04;1.90;;;1.80;;
9541;SDS011;4809;48.224;8.572;2023-07-30T09:54:31;2.20;;;2.00;;
9541;SDS011;4809;48.224;8.572;2023-07-30T09:56:58;2.22;;;2.03;;
9541;SDS011;4809;48.224;8.572;2023-07-30T09:59:24;1.90;;;1.73;;
9541;SDS011;4809;48.224;8.572;2023-07-30T10:01:50;1.98;;;1.88;;
9541;SDS011;4809;48.224;8.572;2023-07-30T10:04:21;2.10;;;1.90;;
9541;SDS011;4809;48.224;8.572;2023-07-30T10:06:52;2.67;;;1.90;;
9541;SDS011;4809;48.224;8.572;2023-07-30T10:09:19;1.85;;;1.75;;
9541;SDS011;4809;48.224;8.572;2023-07-30T10:11:48;2.00;;;1.90;;
9541;SDS011;4809;48.224;8.572;2023-07-30T10:14:16;2.17;;;2.03;;
9541;SDS011;4809;48.224;8.572;2023-07-30T10:16:52;1.98;;;1.88;;
9541;SDS011;4809;48.224;8.572;2023-07-30T10:19:22;2.17;;;1.98;;
9541;SDS011;4809;48.224;8.572;2023-07-30T10:21:49;2.25;;;2.08;;
9541;SDS011;4809;48.224;8.572;2023-07-30T10:24:14;2.10;;;2.00;;
9541;SDS011;4809;48.224;8.572;2023-07-30T10:26:40;2.03;;;1.90;;
9541;SDS011;4809;48.224;8.572;2023-07-30T10:31:55;2.28;;;2.00;;
9541;SDS011;4809;48.224;8.572;2023-07-30T10:34:22;2.47;;;2.28;;
9541;SDS011;4809;48.224;8.572;2023-07-30T10:36:52;2.45;;;2.25;;
9541;SDS011;4809;48.224;8.572;2023-07-30T10:39:20;2.20;;;2.10;;
9541;SDS011;4809;48.224;8.572;2023-07-30T10:41:51;2.58;;;2.10;;
9541;SDS011;4809;48.224;8.572;2023-07-30T10:44:30;2.13;;;1.95;;
9541;SDS011;4809;48.224;8.572;2023-07-30T10:46:57;2.38;;;2.15;;
9541;SDS011;4809;48.224;8.572;2023-07-30T10:49:24;2.30;;;2.10;;
9541;SDS011;4809;48.224;8.572;2023-07-30T10:51:51;2.35;;;2.10;;
9541;SDS011;4809;48.224;8.572;2023-07-30T10:54:18;2.25;;;2.00;;
9541;SDS011;4809;48.224;8.572;2023-07-30T10:56:44;2.38;;;2.17;;
9541;SDS011;4809;48.224;8.572;2023-07-30T10:59:10;2.65;;;2.15;;
9541;SDS011;4809;48.224;8.572;2023-07-30T11:01:40;2.17;;;2.00;;
9541;SDS011;4809;48.224;8.572;2023-07-30T11:04:15;2.30;;;2.20;;
9541;SDS011;4809;48.224;8.572;2023-07-30T11:06:49;3.63;;;2.20;;
9541;SDS011;4809;48.224;8.572;2023-07-30T11:09:19;3.58;;;2.25;;
9541;SDS011;4809;48.224;8.572;2023-07-30T11:11:47;2.45;;;2.10;;
9541;SDS011;4809;48.224;8.572;2023-07-30T11:14:16;2.53;;;2.33;;
9541;SDS011;4809;48.224;8.572;2023-07-30T11:16:57;2.33;;;2.10;;
9541;SDS011;4809;48.224;8.572;2023-07-30T11:19:24;3.33;;;2.50;;
9541;SDS011;4809;48.224;8.572;2023-07-30T11:21:52;2.50;;;2.30;;
9541;SDS011;4809;48.224;8.572;2023-07-30T11:24:21;2.40;;;2.20;;
9541;SDS011;4809;48.224;8.572;2023-07-30T11:26:59;2.65;;;2.20;;
9541;SDS011;4809;48.224;8.572;2023-07-30T11:29:25;3.20;;;2.50;;
9541;SDS011;4809;48.224;8.572;2023-07-30T11:31:52;2.88;;;2.20;;
9541;SDS011;4809;48.224;8.572;2023-07-30T11:34:22;2.72;;;2.20;;
9541;SDS011;4809;48.224;8.572;2023-07-30T11:36:48;2.42;;;2.22;;
9541;SDS011;4809;48.224;8.572;2023-07-30T11:39:14;2.47;;;2.25;;
9541;SDS011;4809;48.224;8.572;2023-07-30T11:41:40;2.42;;;2.22;;
9541;SDS011;4809;48.224;8.572;2023-07-30T11:44:06;2.58;;;2.20;;
9541;SDS011;4809;48.224;8.572;2023-07-30T11:46:32;2.33;;;2.10;;
9541;SDS011;4809;48.224;8.572;2023-07-30T11:49:16;2.38;;;2.13;;
9541;SDS011;4809;48.224;8.572;2023-07-30T11:51:42;2.30;;;2.10;;
9541;SDS011;4809;48.224;8.572;2023-07-30T11:54:19;2.50;;;2.30;;
9541;SDS011;4809;48.224;8.572;2023-07-30T11:56:46;2.30;;;2.10;;
9541;SDS011;4809;48.224;8.572;2023-07-30T11:59:12;2.55;;;2.20;;
9541;SDS011;4809;48.224;8.572;2023-07-30T12:01:37;3.05;;;2.45;;
9541;SDS011;4809;48.224;8.572;2023-07-30T12:04:04;2.55;;;2.17;;
9541;SDS011;4809;48.224;8.572;2023-07-30T12:06:41;2.55;;;2.35;;
9541;SDS011;4809;48.224;8.572;2023-07-30T12:09:14;3.10;;;2.30;;
9541;SDS011;4809;48.224;8.572;2023-07-30T12:11:47;3.00;;;2.13;;
9541;SDS011;4809;48.224;8.572;2023-07-30T12:14:17;3.25;;;2.30;;
9541;SDS011;4809;48.224;8.572;2023-07-30T12:16:44;4.05;;;2.28;;
9541;SDS011;4809;48.224;8.572;2023-07-30T12:19:10;2.67;;;2.30;;
9541;SDS011;4809;48.224;8.572;2023-07-30T12:21:36;2.75;;;2.20;;
9541;SDS011;4809;48.224;8.572;2023-07-30T12:24:01;3.08;;;2.30;;
9541;SDS011;4809;48.224;8.572;2023-07-30T12:26:31;2.50;;;2.08;;
9541;SDS011;4809;48.224;8.572;2023-07-30T12:28:59;2.63;;;2.38;;
9541;SDS011;4809;48.224;8.572;2023-07-30T12:31:25;3.90;;;2.70;;
9541;SDS011;4809;48.224;8.572;2023-07-30T12:33:51;3.28;;;2.30;;
9541;SDS011;4809;48.224;8.572;2023-07-30T12:36:17;2.60;;;2.40;;
9541;SDS011;4809;48.224;8.572;2023-07-30T12:38:42;2.53;;;2.33;;
9541;SDS011;4809;48.224;8.572;2023-07-30T12:41:08;2.63;;;2.42;;
9541;SDS011;4809;48.224;8.572;2023-07-30T12:43:33;3.17;;;2.90;;
9541;SDS011;4809;48.224;8.572;2023-07-30T12:45:59;2.45;;;2.25;;
9541;SDS011;4809;48.224;8.572;2023-07-30T12:48:25;2.63;;;2.25;;
9541;SDS011;4809;48.224;8.572;2023-07-30T12:50:50;2.50;;;2.17;;
9541;SDS011;4809;48.224;8.572;2023-07-30T12:53:16;2.90;;;2.47;;
9541;SDS011;4809;48.224;8.572;2023-07-30T12:55:41;2.42;;;2.22;;
9541;SDS011;4809;48.224;8.572;2023-07-30T12:58:07;2.20;;;2.05;;
9541;SDS011;4809;48.224;8.572;2023-07-30T13:00:33;2.70;;;2.50;;
9541;SDS011;4809;48.224;8.572;2023-07-30T13:02:59;2.60;;;2.40;;
9541;SDS011;4809;48.224;8.572;2023-07-30T13:05:28;2.40;;;2.20;;
9541;SDS011;4809;48.224;8.572;2023-07-30T13:07:54;3.13;;;2.60;;
9541;SDS011;4809;48.224;8.572;2023-07-30T13:10:19;2.72;;;2.53;;
9541;SDS011;4809;48.224;8.572;2023-07-30T13:12:45;2.55;;;2.35;;
9541;SDS011;4809;48.224;8.572;2023-07-30T13:15:11;2.88;;;2.47;;
9541;SDS011;4809;48.224;8.572;2023-07-30T13:17:37;4.70;;;2.60;;
9541;SDS011;4809;48.224;8.572;2023-07-30T13:20:03;3.35;;;2.70;;
9541;SDS011;4809;48.224;8.572;2023-07-30T13:22:30;3.83;;;2.83;;
9541;SDS011;4809;48.224;8.572;2023-07-30T13:24:56;3.63;;;2.70;;
9541;SDS011;4809;48.224;8.572;2023-07-30T13:27:21;3.65;;;2.50;;
9541;SDS011;4809;48.224;8.572;2023-07-30T13:29:47;3.42;;;2.80;;
9541;SDS011;4809;48.224;8.572;2023-07-30T13:32:13;3.70;;;2.80;;
9541;SDS011;4809;48.224;8.572;2023-07-30T13:34:39;3.65;;;2.80;;
9541;SDS011;4809;48.224;8.572;2023-07-30T13:37:05;4.13;;;2.60;;
9541;SDS011;4809;48.224;8.572;2023-07-30T13:39:31;2.95;;;2.60;;
9541;SDS011;4809;48.224;8.572;2023-07-30T13:41:57;3.15;;;2.85;;
9541;SDS011;4809;48.224;8.572;2023-07-30T13:44:22;4.88;;;2.60;;
9541;SDS011;4809;48.224;8.572;2023-07-30T13:46:48;3.72;;;2.53;;
9541;SDS011;4809;48.224;8.572;2023-07-30T13:49:14;3.17;;;2.40;;
9541;SDS011;4809;48.224;8.572;2023-07-30T13:51:39;3.13;;;2.58;;
9541;SDS011;4809;48.224;8.572;2023-07-30T13:54:05;3.45;;;2.42;;
9541;SDS011;4809;48.224;8.572;2023-07-30T13:56:32;2.63;;;2.40;;
9541;SDS011;4809;48.224;8.572;2023-07-30T13:58:59;4.13;;;2.70;;
9541;SDS011;4809;48.224;8.572;2023-07-30T14:01:24;2.60;;;2.40;;
9541;SDS011;4809;48.224;8.572;2023-07-30T14:03:50;3.13;;;2.60;;
9541;SDS011;4809;48.224;8.572;2023-07-30T14:06:16;2.67;;;2.45;;
9541;SDS011;4809;48.224;8.572;2023-07-30T14:08:42;2.40;;;2.17;;
9541;SDS011;4809;48.224;8.572;2023-07-30T14:11:07;2.60;;;2.40;;
9541;SDS011;4809;48.224;8.572;2023-07-30T14:13:33;2.75;;;2.20;;
9541;SDS011;4809;48.224;8.572;2023-07-30T14:15:58;2.85;;;2.40;;
9541;SDS011;4809;48.224;8.572;2023-07-30T14:18:24;3.03;;;2.40;;
9541;SDS011;4809;48.224;8.572;2023-07-30T14:20:50;3.28;;;2.40;;
9541;SDS011;4809;48.224;8.572;2023-07-30T14:23:16;2.85;;;2.50;;
9541;SDS011;4809;48.224;8.572;2023-07-30T14:25:43;2.53;;;2.25;;
9541;SDS011;4809;48.224;8.572;2023-07-30T14:28:09;3.08;;;2.25;;
9541;SDS011;4809;48.224;8.572;2023-07-30T14:30:34;2.97;;;2.25;;
9541;SDS011;4809;48.224;8.572;2023-07-30T14:33:01;2.38;;;2.15;;
9541;SDS011;4809;48.224;8.572;2023-07-30T14:35:27;2.42;;;2.10;;
9541;SDS011;4809;48.224;8.572;2023-07-30T14:37:53;3.10;;;2.80;;
9541;SDS011;4809;48.224;8.572;2023-07-30T14:40:19;3.60;;;2.17;;
9541;SDS011;4809;48.224;8.572;2023-07-30T14:42:45;3.22;;;2.10;;
9541;SDS011;4809;48.224;8.572;2023-07-30T14:45:11;3.33;;;2.22;;
9541;SDS011;4809;48.224;8.572;2023-07-30T14:47:37;2.35;;;2.00;;
9541;SDS011;4809;48.224;8.572;2023-07-30T14:50:04;2.22;;;2.03;;
9541;SDS011;4809;48.224;8.572;2023-07-30T14:52:30;2.47;;;1.90;;
9541;SDS011;4809;48.224;8.572;2023-07-30T14:54:56;3.65;;;2.03;;
9541;SDS011;4809;48.224;8.572;2023-07-30T14:57:22;4.82;;;1.90;;
9541;SDS011;4809;48.224;8.572;2023-07-30T14:59:47;2.65;;;2.13;;
9541;SDS011;4809;48.224;8.572;2023-07-30T15:02:13;2.35;;;2.10;;
9541;SDS011;4809;48.224;8.572;2023-07-30T15:04:39;2.78;;;2.00;;
9541;SDS011;4809;48.224;8.572;2023-07-30T15:07:04;4.45;;;2.10;;
9541;SDS011;4809;48.224;8.572;2023-07-30T15:09:30;2.95;;;2.08;;
9541;SDS011;4809;48.224;8.572;2023-07-30T15:11:59;3.15;;;2.20;;
9541;SDS011;4809;48.224;8.572;2023-07-30T15:14:26;3.28;;;2.17;;